Terminal Aerodrome Forecast
Issued by NWS

Home | Current Version | Previous Version | Text Only | Print | Product List | Glossary On
Versions: 1 2 3 4 5 6 7 8 9 10 11 12 13 14 15 16 17 18 19 20 21 22
000
FTUS43 KLSX 020910 AAA
TAFSUS
TAF AMD
KSUS 020910Z 0209/0306 VRB04KT 6SM -SHRA SCT010 OVC020
     FM021100 03005KT 5SM BR OVC010
     FM021600 01006KT P6SM OVC020
     FM022100 36006KT P6SM BKN035
     FM030100 35004KT P6SM SCT035=

USA.gov is the U.S. government's official web portal to all federal, state and local government web resources and services.